Time;durP1;ratioP1;P1;durP2;ratioP2;P2;SDS_P1;SDS_P2;PMS_P1;PMS_P2;Temp;Humidity;BMP_temperature;BMP_pressure;BME280_temperature;BME280_humidity;BME280_pressure;Samples;Min_cycle;Max_cycle;Signal;HPM_P1;HPM_P2
2023/04/30 00:01:58;;;;;;;15.20;4.22;;;7.60;99.90;;;;;;5096150;28;20139;-40
2023/04/30 00:04:24;;;;;;;9.82;3.72;;;7.60;99.90;;;;;;5096026;28;20040;-41
2023/04/30 00:06:49;;;;;;;10.23;4.20;;;7.60;99.90;;;;;;5096007;28;20442;-38
2023/04/30 00:09:15;;;;;;;13.18;4.38;;;7.50;99.90;;;;;;5111450;27;20040;-41
2023/04/30 00:11:41;;;;;;;13.00;4.80;;;7.50;99.90;;;;;;5095969;28;20039;-40
2023/04/30 00:14:06;;;;;;;11.95;4.22;;;7.40;99.90;;;;;;5095310;28;20036;-39
2023/04/30 00:16:32;;;;;;;11.75;4.80;;;7.40;99.90;;;;;;5095362;28;20047;-38
2023/04/30 00:18:57;;;;;;;15.90;4.68;;;7.30;99.90;;;;;;5095369;28;20506;-44
2023/04/30 00:21:23;;;;;;;12.48;3.80;;;7.30;99.90;;;;;;5111083;27;20052;-40
2023/04/30 00:23:49;;;;;;;8.20;3.97;;;7.30;99.90;;;;;;5096269;28;20050;-35
2023/04/30 00:26:14;;;;;;;7.47;3.90;;;7.20;99.90;;;;;;5077475;28;20047;-38
2023/04/30 00:28:40;;;;;;;12.18;4.32;;;7.20;99.90;;;;;;5095564;28;20043;-41
2023/04/30 00:31:08;;;;;;;10.05;4.30;;;7.10;99.90;;;;;;5094982;28;20077;-41
2023/04/30 00:33:34;;;;;;;11.55;4.30;;;7.00;99.90;;;;;;5095705;28;20051;-39
2023/04/30 00:36:00;;;;;;;11.88;4.93;;;7.00;99.90;;;;;;5095825;28;20066;-40
2023/04/30 00:38:25;;;;;;;10.15;4.45;;;6.90;99.90;;;;;;5096142;28;20481;-42
2023/04/30 00:40:52;;;;;;;14.10;5.05;;;6.80;99.90;;;;;;5094727;28;20073;-43
2023/04/30 00:43:17;;;;;;;14.75;5.00;;;6.80;99.90;;;;;;5095177;28;20056;-39
2023/04/30 00:45:43;;;;;;;9.27;4.80;;;6.80;99.90;;;;;;5094579;28;20047;-38
2023/04/30 00:48:09;;;;;;;8.40;5.03;;;6.70;99.90;;;;;;5095061;28;20533;-34
2023/04/30 00:50:35;;;;;;;8.32;4.38;;;6.70;99.90;;;;;;5094806;28;20104;-39
2023/04/30 00:53:01;;;;;;;8.65;3.83;;;6.70;99.90;;;;;;5076715;28;20059;-42
2023/04/30 00:55:27;;;;;;;7.97;4.07;;;6.60;99.90;;;;;;5093953;28;20043;-46
2023/04/30 00:57:53;;;;;;;9.98;3.90;;;6.60;99.90;;;;;;5095677;28;20498;-38
2023/04/30 01:00:19;;;;;;;10.70;4.90;;;6.50;99.90;;;;;;5094582;28;20413;-35
2023/04/30 01:02:44;;;;;;;9.77;4.35;;;6.50;99.90;;;;;;5076672;28;20051;-39
2023/04/30 01:05:10;;;;;;;11.43;4.30;;;6.50;99.90;;;;;;5095353;28;20561;-42
2023/04/30 01:07:45;;;;;;;8.27;3.95;;;6.40;99.90;;;;;;5095555;28;20048;-45
2023/04/30 01:10:14;;;;;;;8.70;3.55;;;6.40;99.90;;;;;;5110233;27;20140;-38
2023/04/30 01:13:05;;;;;;;11.13;4.25;;;6.40;99.90;;;;;;5095304;28;20409;-36
2023/04/30 01:15:46;;;;;;;9.70;3.85;;;6.40;99.90;;;;;;5109934;27;20044;-40
2023/04/30 01:18:43;;;;;;;10.95;3.78;;;6.30;99.90;;;;;;5094998;28;20051;-39
2023/04/30 01:21:10;;;;;;;11.50;4.25;;;6.30;99.90;;;;;;5066467;28;20059;-38
2023/04/30 01:24:05;;;;;;;9.63;4.10;;;6.30;99.90;;;;;;5094542;28;20551;-42
2023/04/30 01:27:07;;;;;;;10.60;4.50;;;6.20;99.90;;;;;;5110915;27;20314;-40
2023/04/30 01:29:35;;;;;;;9.55;4.03;;;6.30;99.90;;;;;;5031331;28;20415;-40
2023/04/30 01:32:02;;;;;;;9.40;3.83;;;6.20;99.90;;;;;;5031279;28;20063;-35
2023/04/30 01:34:28;;;;;;;9.77;4.85;;;6.30;99.90;;;;;;5031355;28;20060;-44
2023/04/30 01:36:56;;;;;;;13.13;4.70;;;6.30;99.90;;;;;;5031198;28;20076;-36
2023/04/30 01:39:37;;;;;;;8.70;3.60;;;6.30;99.90;;;;;;5030984;28;20053;-35
2023/04/30 01:42:27;;;;;;;6.55;3.60;;;6.30;99.90;;;;;;5031681;28;20207;-40
2023/04/30 01:45:30;;;;;;;6.15;3.00;;;6.20;99.90;;;;;;5031551;28;20164;-36
2023/04/30 01:48:28;;;;;;;5.03;2.50;;;6.20;99.90;;;;;;5031563;28;20045;-35
2023/04/30 01:51:18;;;;;;;5.72;2.63;;;6.20;99.90;;;;;;5030720;28;20616;-36
2023/04/30 01:53:45;;;;;;;7.57;3.50;;;6.10;99.90;;;;;;5014361;28;20057;-37
2023/04/30 01:56:31;;;;;;;7.25;3.67;;;6.10;99.90;;;;;;5013335;28;20076;-39
2023/04/30 01:58:58;;;;;;;10.13;4.70;;;6.10;99.90;;;;;;5030506;28;20453;-39
2023/04/30 02:01:31;;;;;;;11.88;4.65;;;6.00;99.90;;;;;;5024919;28;20718;-40
2023/04/30 02:03:57;;;;;;;9.35;4.93;;;6.00;99.90;;;;;;5070604;28;20395;-38
2023/04/30 02:06:28;;;;;;;12.80;5.22;;;6.00;99.90;;;;;;5092333;28;20055;-37
2023/04/30 02:08:58;;;;;;;11.38;5.50;;;5.90;99.90;;;;;;5097203;28;20093;-43
2023/04/30 02:11:24;;;;;;;10.88;5.22;;;6.00;99.90;;;;;;5097904;28;20048;-35
2023/04/30 02:13:50;;;;;;;11.55;5.13;;;6.00;99.90;;;;;;5079550;28;20074;-41
2023/04/30 02:16:15;;;;;;;13.68;5.10;;;6.00;99.90;;;;;;5097676;28;20044;-39
2023/04/30 02:18:41;;;;;;;12.48;5.80;;;6.00;99.90;;;;;;5097972;28;20051;-35
2023/04/30 02:21:07;;;;;;;11.18;5.45;;;6.00;99.90;;;;;;5097009;28;20106;-41
2023/04/30 02:23:32;;;;;;;13.05;6.00;;;6.10;99.90;;;;;;5097942;28;20051;-41
2023/04/30 02:25:58;;;;;;;16.23;5.85;;;6.10;99.90;;;;;;5096870;28;20047;-43
2023/04/30 02:28:24;;;;;;;13.32;5.80;;;6.20;99.90;;;;;;5097961;28;20660;-35
2023/04/30 02:30:49;;;;;;;13.00;6.10;;;6.20;99.90;;;;;;5097256;28;20533;-40
2023/04/30 02:33:15;;;;;;;9.77;5.72;;;6.20;99.90;;;;;;5097825;28;20063;-39
2023/04/30 02:35:41;;;;;;;5.85;5.07;;;6.30;99.90;;;;;;5097113;28;20050;-37
2023/04/30 02:38:06;;;;;;;14.90;6.05;;;6.30;99.90;;;;;;5097803;28;20052;-43
2023/04/30 02:40:32;;;;;;;9.10;6.22;;;6.40;99.90;;;;;;5079060;28;20047;-39
2023/04/30 02:43:00;;;;;;;9.43;5.82;;;6.40;99.90;;;;;;5098076;28;20083;-39
2023/04/30 02:45:26;;;;;;;11.05;5.50;;;6.40;99.90;;;;;;5097622;28;20368;-37
2023/04/30 02:47:51;;;;;;;11.18;5.13;;;6.40;99.90;;;;;;5097565;28;20047;-37
2023/04/30 02:50:17;;;;;;;11.68;5.80;;;6.50;99.90;;;;;;5096978;28;20493;-38
2023/04/30 02:52:45;;;;;;;12.05;5.60;;;6.50;99.90;;;;;;5097023;28;20097;-43
2023/04/30 02:55:11;;;;;;;15.02;5.97;;;6.50;99.90;;;;;;5096607;28;20043;-38
2023/04/30 02:57:37;;;;;;;11.55;6.55;;;6.50;99.90;;;;;;5097509;28;20492;-35
2023/04/30 03:00:03;;;;;;;14.50;5.47;;;6.50;99.90;;;;;;5097155;28;20143;-41
2023/04/30 03:02:29;;;;;;;8.38;5.00;;;6.40;99.90;;;;;;5097248;28;20051;-36
2023/04/30 03:04:54;;;;;;;12.98;5.40;;;6.40;99.90;;;;;;5097354;28;20471;-41
2023/04/30 03:07:20;;;;;;;8.82;5.68;;;6.40;99.90;;;;;;5095882;28;20158;-36
2023/04/30 03:09:46;;;;;;;11.80;5.88;;;6.40;99.90;;;;;;5096749;28;20047;-43
2023/04/30 03:12:13;;;;;;;19.30;6.18;;;6.40;99.90;;;;;;5097522;28;20046;-35
2023/04/30 03:14:39;;;;;;;8.82;5.20;;;6.40;99.90;;;;;;5096971;28;20506;-39
2023/04/30 03:17:04;;;;;;;9.38;5.40;;;6.30;99.90;;;;;;5097006;28;20058;-36
2023/04/30 03:19:30;;;;;;;14.45;4.95;;;6.30;99.90;;;;;;5095828;28;20448;-36
2023/04/30 03:21:59;;;;;;;11.98;5.18;;;6.20;99.90;;;;;;5112329;27;20634;-36
2023/04/30 03:24:25;;;;;;;10.95;5.10;;;6.30;99.90;;;;;;5097512;28;20050;-39
2023/04/30 03:26:50;;;;;;;11.52;5.32;;;6.20;99.90;;;;;;5096851;28;20047;-38
2023/04/30 03:29:16;;;;;;;8.48;4.78;;;6.20;99.90;;;;;;5085160;28;20838;-43
2023/04/30 03:31:42;;;;;;;10.73;5.30;;;6.20;99.90;;;;;;5077903;28;20147;-37
2023/04/30 03:34:08;;;;;;;13.02;6.60;;;6.10;99.90;;;;;;5095856;28;20058;-39
2023/04/30 03:36:34;;;;;;;12.05;5.43;;;6.00;99.90;;;;;;5095893;28;20398;-35
2023/04/30 03:39:00;;;;;;;15.23;7.13;;;6.10;99.90;;;;;;5095956;28;20054;-42
2023/04/30 03:41:25;;;;;;;9.18;5.28;;;6.00;99.90;;;;;;5096790;28;20051;-36
2023/04/30 03:43:51;;;;;;;5.47;4.60;;;6.00;99.90;;;;;;5095378;28;20415;-39
2023/04/30 03:46:17;;;;;;;14.57;6.60;;;6.00;99.90;;;;;;5094655;28;20051;-41
2023/04/30 03:48:43;;;;;;;12.02;4.97;;;5.80;99.90;;;;;;5095544;28;20047;-39
2023/04/30 03:51:09;;;;;;;11.95;5.22;;;5.80;99.90;;;;;;5095931;28;20061;-36
2023/04/30 03:53:35;;;;;;;12.20;6.50;;;5.70;99.90;;;;;;5096400;28;20055;-41
2023/04/30 03:56:01;;;;;;;10.60;5.70;;;5.70;99.90;;;;;;5096268;28;20494;-35
2023/04/30 03:58:27;;;;;;;9.77;5.88;;;5.60;99.90;;;;;;5096413;28;20581;-44
2023/04/30 04:00:53;;;;;;;10.15;5.75;;;5.60;99.90;;;;;;5110769;27;20055;-42
2023/04/30 04:03:19;;;;;;;14.18;6.00;;;5.50;99.90;;;;;;5096532;28;20391;-37
2023/04/30 04:05:45;;;;;;;13.95;5.93;;;5.50;99.90;;;;;;5094218;28;20048;-39
2023/04/30 04:08:11;;;;;;;17.15;7.10;;;5.50;99.90;;;;;;5095562;28;20538;-37
2023/04/30 04:10:37;;;;;;;14.85;6.47;;;5.50;99.90;;;;;;5095227;28;20078;-37
2023/04/30 04:13:03;;;;;;;11.73;6.45;;;5.50;99.90;;;;;;5095653;28;20047;-39
2023/04/30 04:15:29;;;;;;;15.20;8.57;;;5.50;99.90;;;;;;5094827;28;20634;-38
2023/04/30 04:17:54;;;;;;;13.23;6.45;;;5.50;99.90;;;;;;5096416;28;20040;-39
2023/04/30 04:20:20;;;;;;;11.52;6.60;;;5.50;99.90;;;;;;5095440;28;20131;-39
2023/04/30 04:22:46;;;;;;;13.05;5.68;;;5.60;99.90;;;;;;5096292;28;20434;-35
2023/04/30 04:25:12;;;;;;;10.02;5.68;;;5.60;99.90;;;;;;5095911;28;20035;-36
2023/04/30 04:27:38;;;;;;;13.77;6.10;;;5.60;99.90;;;;;;5096587;28;20100;-43
2023/04/30 04:30:04;;;;;;;10.32;5.70;;;5.60;99.90;;;;;;5094802;28;20048;-37
2023/04/30 04:32:31;;;;;;;11.88;4.88;;;5.70;99.90;;;;;;5090741;28;20613;-35
2023/04/30 04:34:57;;;;;;;6.07;4.20;;;5.80;99.90;;;;;;5095589;28;20080;-35
2023/04/30 04:37:23;;;;;;;5.28;3.35;;;5.70;99.90;;;;;;5096949;28;20669;-34
2023/04/30 04:39:50;;;;;;;3.58;2.97;;;5.70;99.90;;;;;;5095518;28;20054;-37
2023/04/30 04:42:16;;;;;;;6.32;3.25;;;5.80;99.90;;;;;;5095850;28;20039;-39
2023/04/30 04:44:42;;;;;;;3.85;2.78;;;5.80;99.90;;;;;;5093974;28;20070;-39
2023/04/30 04:47:09;;;;;;;3.85;3.38;;;5.70;99.90;;;;;;5094861;28;20130;-37
2023/04/30 04:49:35;;;;;;;4.85;2.70;;;5.80;99.90;;;;;;5089348;28;20064;-36
2023/04/30 04:52:00;;;;;;;4.47;2.55;;;5.80;99.90;;;;;;5094546;28;20049;-38
2023/04/30 04:54:26;;;;;;;3.97;2.70;;;5.90;99.90;;;;;;5095675;28;20054;-40
2023/04/30 04:56:52;;;;;;;8.00;3.80;;;5.90;99.90;;;;;;5063427;28;20106;-35
2023/04/30 04:59:18;;;;;;;7.90;3.30;;;6.00;99.90;;;;;;5094827;28;20055;-37
2023/04/30 05:01:43;;;;;;;7.80;3.65;;;6.00;99.90;;;;;;5095047;28;20444;-40
2023/04/30 05:04:09;;;;;;;7.47;4.10;;;6.10;99.90;;;;;;5095504;28;20043;-42
2023/04/30 05:06:35;;;;;;;10.80;5.60;;;6.40;99.90;;;;;;5094350;28;20047;-42
2023/04/30 05:09:01;;;;;;;9.30;5.38;;;7.60;99.90;;;;;;5094775;28;20055;-36
2023/04/30 05:11:27;;;;;;;5.97;4.60;;;8.80;99.90;;;;;;5081260;28;20051;-43
2023/04/30 05:13:53;;;;;;;13.10;4.97;;;10.10;99.90;;;;;;5095892;28;20053;-39
2023/04/30 05:16:18;;;;;;;12.88;4.13;;;11.80;99.90;;;;;;5094620;28;20534;-39
2023/04/30 05:18:44;;;;;;;7.53;3.55;;;13.40;99.90;;;;;;5094972;28;20480;-41
2023/04/30 05:21:10;;;;;;;14.32;4.88;;;14.50;99.90;;;;;;5110537;27;20159;-42
2023/04/30 05:23:35;;;;;;;10.48;4.40;;;15.30;99.90;;;;;;5095063;28;20052;-47
2023/04/30 05:26:02;;;;;;;10.65;4.15;;;15.20;99.90;;;;;;5094596;28;20514;-36
2023/04/30 05:28:27;;;;;;;11.63;4.82;;;14.60;99.90;;;;;;5110646;27;20517;-41
2023/04/30 05:30:53;;;;;;;9.82;4.60;;;13.90;99.90;;;;;;5094424;28;20051;-38
2023/04/30 05:33:19;;;;;;;8.20;3.67;;;13.10;99.90;;;;;;5094800;28;20142;-36
2023/04/30 05:35:44;;;;;;;10.73;3.70;;;12.50;99.90;;;;;;5094285;28;20103;-45
2023/04/30 05:38:10;;;;;;;12.38;4.38;;;12.60;99.90;;;;;;5095188;28;20519;-41
2023/04/30 05:40:36;;;;;;;7.75;4.07;;;14.00;99.90;;;;;;5072787;28;20125;-42
2023/04/30 05:43:01;;;;;;;10.48;4.35;;;15.50;99.90;;;;;;5098154;28;20546;-39
2023/04/30 05:45:27;;;;;;;7.88;3.70;;;17.00;99.90;;;;;;5098263;28;20062;-45
2023/04/30 05:47:53;;;;;;;9.15;4.40;;;18.00;99.90;;;;;;5099181;28;20476;-42
2023/04/30 05:50:18;;;;;;;6.65;4.03;;;19.20;99.90;;;;;;5097756;28;20043;-37
2023/04/30 05:52:44;;;;;;;8.15;3.85;;;19.90;99.90;;;;;;5097967;28;20133;-38
2023/04/30 05:55:10;;;;;;;8.90;4.00;;;20.40;99.90;;;;;;5097796;28;20086;-42
2023/04/30 05:57:36;;;;;;;11.93;4.18;;;21.10;99.90;;;;;;5088107;28;20211;-44
2023/04/30 06:00:03;;;;;;;9.98;4.03;;;21.50;99.20;;;;;;5098368;28;20176;-41
2023/04/30 06:02:29;;;;;;;9.88;4.20;;;22.00;99.90;;;;;;5098386;28;20051;-42
2023/04/30 06:04:55;;;;;;;7.05;4.03;;;22.80;99.80;;;;;;5097574;28;20051;-46
2023/04/30 06:07:20;;;;;;;11.23;3.88;;;22.90;98.60;;;;;;5098759;28;20059;-43
2023/04/30 06:09:46;;;;;;;8.30;3.80;;;23.10;98.40;;;;;;5079513;28;20402;-46
2023/04/30 06:12:12;;;;;;;11.70;4.65;;;23.70;98.00;;;;;;5098858;28;20331;-41
2023/04/30 06:14:38;;;;;;;7.43;3.45;;;23.60;95.80;;;;;;5098127;28;20105;-47
2023/04/30 06:17:04;;;;;;;12.00;4.22;;;24.10;95.90;;;;;;5098631;28;20048;-40
2023/04/30 06:19:29;;;;;;;9.52;3.97;;;23.60;95.40;;;;;;5097123;28;20478;-39
2023/04/30 06:21:55;;;;;;;10.27;3.88;;;24.10;94.80;;;;;;5098652;28;20530;-41
2023/04/30 06:24:20;;;;;;;7.57;3.40;;;23.70;94.10;;;;;;5098469;28;20391;-46
2023/04/30 06:26:46;;;;;;;11.25;3.45;;;24.30;95.00;;;;;;5097485;28;20051;-47
2023/04/30 06:29:12;;;;;;;8.32;3.53;;;24.30;94.40;;;;;;5097447;28;20047;-41
2023/04/30 06:31:37;;;;;;;8.80;3.40;;;24.00;93.80;;;;;;5097925;28;20059;-45
2023/04/30 06:34:03;;;;;;;8.95;3.35;;;24.00;93.50;;;;;;5097739;28;20743;-45
2023/04/30 06:36:28;;;;;;;10.98;3.55;;;24.40;94.10;;;;;;5097745;28;20546;-45
2023/04/30 06:38:54;;;;;;;9.32;3.20;;;24.20;92.80;;;;;;5097578;28;20461;-45
2023/04/30 06:41:20;;;;;;;8.35;3.30;;;23.90;92.90;;;;;;5098110;28;20161;-43
2023/04/30 06:43:45;;;;;;;7.05;2.80;;;23.20;92.50;;;;;;5097447;28;20053;-42
2023/04/30 06:46:11;;;;;;;13.75;3.42;;;23.50;92.10;;;;;;5096754;28;20132;-44
2023/04/30 06:48:37;;;;;;;9.77;2.97;;;23.10;92.30;;;;;;5078639;28;20043;-42
2023/04/30 06:51:02;;;;;;;10.55;3.28;;;23.00;93.50;;;;;;5096919;28;20047;-38
2023/04/30 06:53:28;;;;;;;10.85;4.03;;;23.20;92.50;;;;;;5095836;28;20487;-50
2023/04/30 06:55:54;;;;;;;8.75;2.95;;;23.30;93.90;;;;;;5097272;28;20075;-44
2023/04/30 06:58:20;;;;;;;7.63;3.10;;;23.00;93.10;;;;;;5096642;28;20043;-38
2023/04/30 07:00:45;;;;;;;8.50;2.80;;;23.00;93.80;;;;;;5096200;28;20444;-46
2023/04/30 07:03:11;;;;;;;8.85;3.28;;;22.10;94.60;;;;;;5096554;28;20043;-44
2023/04/30 07:05:37;;;;;;;8.38;3.47;;;21.10;95.70;;;;;;5096165;28;20047;-45
2023/04/30 07:08:03;;;;;;;9.82;3.45;;;20.50;96.80;;;;;;5094599;28;20060;-38
2023/04/30 07:10:30;;;;;;;7.72;3.10;;;19.90;96.70;;;;;;5095779;28;20040;-45
2023/04/30 07:12:56;;;;;;;8.73;2.97;;;19.50;96.40;;;;;;5078191;28;20075;-48
2023/04/30 07:15:22;;;;;;;8.60;2.50;;;19.40;97.70;;;;;;5095987;28;20169;-41
2023/04/30 07:17:48;;;;;;;7.63;3.33;;;19.40;97.10;;;;;;5096345;28;20063;-43
2023/04/30 07:20:14;;;;;;;11.20;4.30;;;19.20;97.60;;;;;;5096215;28;20047;-43
2023/04/30 07:22:43;;;;;;;8.25;2.83;;;18.80;98.50;;;;;;5077854;28;20040;-45
2023/04/30 07:25:09;;;;;;;9.13;3.20;;;18.50;99.10;;;;;;5095789;28;20043;-43
2023/04/30 07:27:34;;;;;;;10.90;3.17;;;18.20;99.00;;;;;;5096450;28;20082;-43
2023/04/30 07:30:00;;;;;;;8.93;3.65;;;18.00;98.80;;;;;;5095495;28;20935;-37
2023/04/30 07:32:26;;;;;;;9.02;2.78;;;18.00;98.90;;;;;;5096388;28;20058;-45
2023/04/30 07:34:52;;;;;;;5.80;2.83;;;17.90;98.60;;;;;;5095544;28;20043;-43
2023/04/30 07:37:19;;;;;;;11.07;3.95;;;17.80;98.80;;;;;;5096349;28;20047;-45
2023/04/30 07:39:44;;;;;;;8.73;2.88;;;17.80;98.50;;;;;;5095582;28;20079;-44
2023/04/30 07:42:10;;;;;;;11.75;3.88;;;17.60;99.00;;;;;;5111209;27;20196;-39
2023/04/30 07:44:36;;;;;;;6.88;2.85;;;17.20;98.90;;;;;;5095527;28;20039;-46
2023/04/30 07:47:02;;;;;;;8.50;2.33;;;17.20;99.10;;;;;;5096062;28;20048;-40
2023/04/30 07:49:27;;;;;;;5.68;2.83;;;17.00;99.90;;;;;;5077363;28;20731;-49
2023/04/30 07:51:53;;;;;;;10.32;3.05;;;16.90;99.90;;;;;;5096325;28;20039;-43
2023/04/30 07:54:19;;;;;;;9.45;3.22;;;16.70;99.90;;;;;;5096283;28;20125;-39
2023/04/30 07:56:45;;;;;;;10.52;3.00;;;16.70;99.90;;;;;;5095600;28;20143;-48
2023/04/30 07:59:10;;;;;;;10.32;3.00;;;16.80;99.90;;;;;;5095020;28;20730;-42
2023/04/30 08:01:36;;;;;;;10.40;2.85;;;16.70;99.90;;;;;;5095380;28;20071;-47
2023/04/30 08:04:02;;;;;;;9.98;3.00;;;16.60;99.90;;;;;;5095494;28;20074;-38
2023/04/30 08:06:27;;;;;;;8.80;3.05;;;16.40;99.90;;;;;;5095101;28;20091;-46
2023/04/30 08:08:53;;;;;;;9.25;2.70;;;16.20;99.90;;;;;;5110822;27;20051;-39
2023/04/30 08:11:19;;;;;;;8.43;2.22;;;16.50;99.90;;;;;;5095494;28;20059;-40
2023/04/30 08:13:45;;;;;;;8.43;2.95;;;16.60;99.90;;;;;;5096009;28;20059;-43
2023/04/30 08:16:11;;;;;;;10.02;2.50;;;16.50;99.50;;;;;;5094867;28;20491;-41
2023/04/30 08:18:37;;;;;;;10.73;2.90;;;16.30;99.40;;;;;;5095346;28;20047;-42
2023/04/30 08:21:05;;;;;;;7.60;2.60;;;16.20;99.90;;;;;;5096251;28;20063;-37
2023/04/30 08:23:31;;;;;;;6.93;2.55;;;16.10;99.90;;;;;;5096498;28;20765;-38
2023/04/30 08:25:56;;;;;;;9.07;3.33;;;16.10;99.90;;;;;;5094845;28;20046;-48
2023/04/30 08:28:22;;;;;;;7.55;2.67;;;16.20;99.90;;;;;;5095802;28;20047;-38
2023/04/30 08:30:48;;;;;;;11.20;3.05;;;16.10;99.60;;;;;;5095347;28;20471;-43
2023/04/30 08:33:13;;;;;;;9.93;3.03;;;15.80;99.80;;;;;;5095560;28;20048;-43
2023/04/30 08:35:39;;;;;;;10.88;3.28;;;15.80;99.90;;;;;;5076288;28;20048;-46
2023/04/30 08:38:05;;;;;;;11.73;3.00;;;15.80;99.90;;;;;;5110596;27;20055;-43
2023/04/30 08:40:34;;;;;;;5.95;2.50;;;15.80;99.90;;;;;;5094555;27;20804;-37
2023/04/30 08:43:07;;;;;;;10.55;2.92;;;15.90;99.90;;;;;;5094676;28;20048;-40
2023/04/30 08:45:35;;;;;;;7.32;2.78;;;15.80;99.90;;;;;;5094479;28;20595;-43
2023/04/30 08:48:06;;;;;;;12.27;3.30;;;15.90;99.90;;;;;;5094898;28;20058;-44
2023/04/30 08:50:33;;;;;;;7.20;3.00;;;15.90;99.90;;;;;;5073649;28;20055;-39
2023/04/30 08:53:00;;;;;;;9.90;3.42;;;15.80;99.90;;;;;;5093792;28;20122;-43
2023/04/30 08:55:27;;;;;;;7.57;3.22;;;16.00;99.90;;;;;;5094686;28;20128;-37
2023/04/30 08:57:53;;;;;;;11.40;3.60;;;16.10;99.90;;;;;;5094550;28;20101;-39
2023/04/30 09:00:19;;;;;;;7.30;3.05;;;16.00;99.90;;;;;;5094688;28;20051;-40
2023/04/30 09:02:45;;;;;;;6.95;3.42;;;15.80;99.90;;;;;;5095208;28;20112;-44
2023/04/30 09:05:13;;;;;;;8.73;3.47;;;16.00;99.90;;;;;;5094363;28;20108;-36
2023/04/30 09:07:44;;;;;;;9.27;3.90;;;16.00;99.90;;;;;;5109861;27;20048;-42
2023/04/30 09:10:15;;;;;;;9.05;3.75;;;15.80;99.90;;;;;;5094441;28;20539;-40
2023/04/30 09:12:44;;;;;;;10.20;3.65;;;15.80;99.90;;;;;;5095289;28;20323;-39
2023/04/30 09:15:11;;;;;;;7.00;2.95;;;16.00;99.90;;;;;;5093400;28;20118;-41
2023/04/30 09:17:37;;;;;;;8.23;3.72;;;16.20;99.90;;;;;;5093256;28;20430;-43
2023/04/30 09:20:10;;;;;;;11.18;3.47;;;16.30;99.90;;;;;;5095298;28;20394;-41
2023/04/30 09:22:38;;;;;;;9.10;3.67;;;16.10;99.90;;;;;;5095220;28;20055;-51
2023/04/30 09:25:04;;;;;;;11.07;3.67;;;16.00;99.90;;;;;;5094311;28;20039;-43
2023/04/30 09:27:30;;;;;;;7.07;3.53;;;16.20;99.90;;;;;;5094725;28;20047;-39
2023/04/30 09:29:56;;;;;;;13.63;4.20;;;16.30;99.90;;;;;;5095029;28;20591;-44
2023/04/30 09:32:21;;;;;;;11.45;4.35;;;16.40;99.90;;;;;;5076955;28;20434;-42
2023/04/30 09:34:47;;;;;;;10.32;4.15;;;16.40;99.90;;;;;;5094622;28;20424;-41
2023/04/30 09:37:13;;;;;;;9.27;3.50;;;16.40;99.90;;;;;;5095082;28;20039;-45
2023/04/30 09:39:50;;;;;;;6.57;3.67;;;16.60;99.90;;;;;;5094141;28;20122;-44
2023/04/30 09:42:16;;;;;;;10.68;4.05;;;16.50;99.90;;;;;;5094894;28;20044;-43
2023/04/30 09:44:42;;;;;;;9.85;4.10;;;16.30;99.90;;;;;;5094310;28;20627;-38
2023/04/30 09:47:18;;;;;;;9.32;3.70;;;16.20;99.90;;;;;;5094817;28;20039;-45
2023/04/30 09:49:50;;;;;;;8.35;4.05;;;16.10;99.90;;;;;;5094074;28;20452;-39
2023/04/30 09:52:16;;;;;;;9.90;3.53;;;16.10;99.90;;;;;;5094099;28;20107;-39
2023/04/30 09:54:44;;;;;;;11.77;4.60;;;16.00;99.90;;;;;;5094436;28;20055;-38
2023/04/30 09:57:12;;;;;;;10.20;4.53;;;16.00;99.90;;;;;;5082521;28;20050;-38
2023/04/30 09:59:45;;;;;;;7.75;4.13;;;15.80;99.90;;;;;;5094453;28;20058;-40
2023/04/30 10:02:18;;;;;;;7.93;3.90;;;15.80;99.90;;;;;;5095109;28;20126;-37
2023/04/30 10:04:53;;;;;;;11.38;4.10;;;15.70;99.90;;;;;;5075935;28;20071;-41
2023/04/30 10:07:20;;;;;;;6.50;3.58;;;15.80;99.90;;;;;;5093663;28;20047;-42
2023/04/30 10:09:54;;;;;;;7.93;3.50;;;15.70;99.90;;;;;;5094090;28;20426;-39
2023/04/30 10:12:24;;;;;;;8.48;3.85;;;15.60;99.90;;;;;;5109651;28;20055;-42
2023/04/30 10:14:59;;;;;;;10.65;3.83;;;15.50;99.90;;;;;;5093637;28;20298;-36
2023/04/30 10:17:27;;;;;;;9.15;3.83;;;15.50;99.90;;;;;;5094529;28;20052;-40
2023/04/30 10:20:00;;;;;;;8.10;3.50;;;15.60;99.90;;;;;;5093059;28;20048;-39
2023/04/30 10:22:27;;;;;;;8.20;3.53;;;15.50;99.90;;;;;;5094906;28;20047;-35
2023/04/30 10:24:53;;;;;;;7.30;3.08;;;15.50;99.90;;;;;;5084852;28;20067;-36
2023/04/30 10:27:18;;;;;;;7.47;3.35;;;15.40;99.90;;;;;;5076312;28;20393;-38
2023/04/30 10:29:45;;;;;;;9.10;2.92;;;15.60;99.90;;;;;;5112397;27;20097;-45
2023/04/30 10:32:12;;;;;;;9.57;4.45;;;15.70;99.90;;;;;;5097917;28;20156;-41
2023/04/30 10:34:54;;;;;;;10.07;3.72;;;15.80;99.90;;;;;;5095999;28;20559;-40
2023/04/30 10:37:50;;;;;;;7.72;3.55;;;15.80;99.90;;;;;;5098139;28;20051;-42
2023/04/30 10:40:17;;;;;;;11.00;4.45;;;15.80;99.90;;;;;;5097263;28;20047;-40
2023/04/30 10:42:52;;;;;;;7.20;3.67;;;16.00;99.90;;;;;;5097399;28;20070;-45
2023/04/30 10:45:19;;;;;;;6.57;3.00;;;16.00;99.90;;;;;;5096468;28;20529;-42
2023/04/30 10:47:45;;;;;;;6.40;3.70;;;16.10;99.90;;;;;;5097601;28;20055;-42
2023/04/30 10:50:12;;;;;;;7.93;3.20;;;16.00;99.90;;;;;;5095786;28;20048;-37
2023/04/30 10:52:38;;;;;;;5.93;3.22;;;16.10;99.90;;;;;;5093255;28;20051;-40
2023/04/30 10:55:08;;;;;;;8.43;3.25;;;16.20;99.90;;;;;;5096167;28;20481;-39
2023/04/30 10:57:42;;;;;;;11.73;4.00;;;16.10;99.90;;;;;;5097199;28;20389;-43
2023/04/30 11:00:08;;;;;;;6.45;3.70;;;16.10;99.90;;;;;;5096080;28;20508;-38
2023/04/30 11:02:46;;;;;;;8.82;3.80;;;16.00;99.90;;;;;;5097029;28;20520;-43
2023/04/30 11:05:17;;;;;;;7.10;4.13;;;16.00;99.90;;;;;;5097556;28;20051;-35
2023/04/30 11:08:11;;;;;;;8.70;3.70;;;16.00;99.90;;;;;;5097893;28;20132;-35
2023/04/30 11:10:37;;;;;;;6.88;3.75;;;16.00;99.90;;;;;;5095691;27;20091;-38
2023/04/30 11:13:05;;;;;;;7.47;3.30;;;15.90;99.90;;;;;;5097133;28;20137;-39
2023/04/30 11:15:40;;;;;;;7.30;3.30;;;16.00;99.90;;;;;;5096307;28;20061;-39
2023/04/30 11:18:07;;;;;;;7.22;3.40;;;16.10;99.90;;;;;;5112862;27;20043;-44
2023/04/30 11:20:39;;;;;;;6.95;2.90;;;16.20;99.90;;;;;;5097995;28;20043;-35
2023/04/30 11:23:11;;;;;;;7.65;3.20;;;16.20;99.90;;;;;;5088841;28;20126;-43
2023/04/30 11:25:45;;;;;;;8.32;3.50;;;16.20;99.90;;;;;;5092873;28;20551;-37
2023/04/30 11:28:19;;;;;;;5.10;2.50;;;16.30;99.90;;;;;;5096379;28;20036;-38
2023/04/30 11:30:56;;;;;;;5.35;2.80;;;16.30;99.90;;;;;;5082058;28;20047;-44
2023/04/30 11:33:26;;;;;;;5.82;2.67;;;16.40;99.90;;;;;;5083365;28;20044;-39
2023/04/30 11:35:53;;;;;;;4.95;2.70;;;16.50;99.90;;;;;;5111989;27;20131;-45
2023/04/30 11:38:25;;;;;;;4.82;2.35;;;16.50;99.90;;;;;;5096821;28;20534;-35
2023/04/30 11:40:51;;;;;;;6.28;3.20;;;16.50;99.90;;;;;;5097172;28;20108;-45
2023/04/30 11:43:25;;;;;;;4.18;2.30;;;16.60;99.90;;;;;;5097151;28;20112;-48
2023/04/30 11:46:10;;;;;;;6.18;2.60;;;16.60;99.90;;;;;;5096520;28;20112;-39
2023/04/30 11:48:41;;;;;;;5.85;2.50;;;16.70;99.90;;;;;;5096134;28;20045;-43
2023/04/30 11:51:18;;;;;;;4.03;2.45;;;16.70;99.90;;;;;;5096598;28;20039;-39
2023/04/30 11:53:46;;;;;;;5.75;2.28;;;16.60;99.90;;;;;;5096556;28;20039;-39
2023/04/30 11:56:12;;;;;;;4.80;2.65;;;16.70;99.90;;;;;;5095618;28;20540;-39
2023/04/30 11:58:38;;;;;;;4.45;2.80;;;16.80;99.90;;;;;;5095816;28;20062;-40
2023/04/30 12:01:06;;;;;;;4.82;2.60;;;16.80;99.90;;;;;;5096403;28;20032;-45
2023/04/30 12:03:38;;;;;;;4.22;2.65;;;16.70;99.90;;;;;;5096386;28;20145;-40
2023/04/30 12:06:04;;;;;;;5.25;2.63;;;16.70;99.90;;;;;;5111952;27;20711;-40
2023/04/30 12:08:30;;;;;;;5.32;2.58;;;16.60;99.90;;;;;;5084609;28;20746;-40
2023/04/30 12:10:56;;;;;;;6.10;2.60;;;16.60;99.90;;;;;;5096752;28;20039;-44
2023/04/30 12:13:21;;;;;;;5.22;2.67;;;16.70;99.90;;;;;;5094692;28;20075;-42
2023/04/30 12:15:58;;;;;;;5.05;2.67;;;16.70;99.90;;;;;;5095607;28;20090;-40
2023/04/30 12:18:24;;;;;;;5.05;2.60;;;16.70;99.90;;;;;;5096730;28;20039;-37
2023/04/30 12:20:50;;;;;;;10.27;3.75;;;16.80;99.90;;;;;;5096711;28;20079;-44
2023/04/30 12:23:16;;;;;;;4.03;2.30;;;16.90;99.90;;;;;;5096025;28;20335;-39
2023/04/30 12:25:42;;;;;;;5.20;2.03;;;16.80;99.90;;;;;;5095763;28;20035;-42
2023/04/30 12:28:09;;;;;;;4.30;2.38;;;16.60;99.90;;;;;;5094817;28;20043;-44
2023/04/30 12:30:35;;;;;;;5.35;2.92;;;16.70;99.90;;;;;;5111244;27;20048;-42
2023/04/30 12:33:02;;;;;;;4.93;1.80;;;16.70;99.90;;;;;;5112324;27;20063;-40
2023/04/30 12:35:32;;;;;;;5.10;2.40;;;16.70;99.90;;;;;;5096100;28;20050;-44
2023/04/30 12:38:03;;;;;;;3.95;1.88;;;16.80;99.90;;;;;;5095845;28;20513;-42
2023/04/30 12:40:29;;;;;;;3.30;1.98;;;16.60;99.90;;;;;;5095960;28;20096;-36
2023/04/30 12:43:07;;;;;;;2.85;1.88;;;16.70;99.90;;;;;;5095913;28;20367;-42
2023/04/30 12:45:54;;;;;;;2.50;1.95;;;16.70;99.90;;;;;;5111258;27;20424;-39
2023/04/30 12:48:22;;;;;;;3.25;1.67;;;16.70;99.90;;;;;;5095290;28;20525;-44
2023/04/30 12:50:55;;;;;;;4.93;2.33;;;16.60;99.90;;;;;;5059466;28;20556;-42
2023/04/30 12:53:21;;;;;;;;;;;16.70;99.90;;;;;;5094503;28;20120;-38